Time;durP1;ratioP1;P1;durP2;ratioP2;P2;SDS_P1;SDS_P2;PMS_P1;PMS_P2;Temp;Humidity;BMP_temperature;BMP_pressure;BME280_temperature;BME280_humidity;BME280_pressure;Samples;Min_cycle;Max_cycle;Signal;HPM_P1;HPM_P2
2022/11/09 00:01:41;;;;;;;9.43;3.60;;;;;;;14.11;79.39;100242.59;5134141;28;20067;-59
2022/11/09 00:04:09;;;;;;;10.25;3.20;;;;;;;14.08;79.42;100250.97;5133493;28;20093;-59
2022/11/09 00:06:36;;;;;;;9.93;2.90;;;;;;;14.07;79.67;100252.00;5134810;27;20035;-59
2022/11/09 00:09:04;;;;;;;9.23;2.92;;;;;;;14.06;79.70;100250.31;5137987;27;20507;-59
2022/11/09 00:11:33;;;;;;;9.00;3.00;;;;;;;14.09;79.63;100247.28;5137771;27;20039;-59
2022/11/09 00:14:00;;;;;;;11.82;3.30;;;;;;;14.07;79.36;100246.66;5137706;27;20039;-60
2022/11/09 00:16:27;;;;;;;8.60;3.05;;;;;;;14.05;79.87;100249.50;5138166;27;20043;-59
2022/11/09 00:18:54;;;;;;;10.23;3.25;;;;;;;14.00;80.03;100242.06;5119126;27;20043;-59
2022/11/09 00:21:23;;;;;;;10.88;3.00;;;;;;;13.95;80.09;100244.50;5137656;27;20114;-59
2022/11/09 00:23:51;;;;;;;9.95;3.55;;;;;;;13.93;80.02;100245.69;5119512;27;20047;-59
2022/11/09 00:26:19;;;;;;;9.00;3.17;;;;;;;13.99;80.21;100242.28;5137703;27;20042;-59
2022/11/09 00:28:46;;;;;;;9.35;3.20;;;;;;;13.87;80.25;100241.94;5137970;27;20043;-59
2022/11/09 00:31:16;;;;;;;11.50;3.40;;;;;;;13.86;80.30;100237.63;5137171;27;20049;-59
2022/11/09 00:33:49;;;;;;;8.80;3.10;;;;;;;13.87;80.18;100238.44;5119759;27;20043;-60
2022/11/09 00:36:16;;;;;;;;;;;;;;;13.87;80.21;100236.59;5137765;27;20121;-60
2022/11/09 00:38:49;;;;;;;8.98;3.00;;;;;;;13.92;80.02;100226.19;5134627;27;19931;-59
2022/11/09 00:41:16;;;;;;;8.10;2.90;;;;;;;13.81;80.00;100221.34;5109858;27;20054;-59
2022/11/09 00:43:43;;;;;;;9.18;3.00;;;;;;;13.86;79.67;100226.97;5137440;27;20043;-59
2022/11/09 00:46:10;;;;;;;9.38;2.85;;;;;;;13.79;80.01;100226.88;5136616;27;20073;-59
2022/11/09 00:48:37;;;;;;;8.73;2.95;;;;;;;13.76;80.00;100231.75;5137264;27;20040;-59
2022/11/09 00:51:04;;;;;;;10.65;2.90;;;;;;;13.77;79.91;100212.91;5137334;27;20042;-59
2022/11/09 00:53:31;;;;;;;9.07;2.80;;;;;;;13.74;79.97;100215.94;5137205;27;20043;-59
2022/11/09 00:56:01;;;;;;;9.48;2.85;;;;;;;13.81;79.71;100230.16;5136961;27;20489;-59
2022/11/09 00:58:31;;;;;;;8.02;2.80;;;;;;;13.77;79.87;100222.72;5136883;27;20046;-59
2022/11/09 01:01:05;;;;;;;8.60;3.00;;;;;;;13.70;80.06;100227.16;5137051;27;20043;-59
2022/11/09 01:03:32;;;;;;;8.38;2.80;;;;;;;13.72;80.38;100233.16;5136923;27;20043;-59
2022/11/09 01:05:59;;;;;;;11.20;2.88;;;;;;;13.70;80.49;100235.16;5136513;27;20100;-59
2022/11/09 01:08:26;;;;;;;11.15;3.28;;;;;;;13.63;80.22;100235.09;5137066;27;20043;-59
2022/11/09 01:10:53;;;;;;;8.73;2.83;;;;;;;13.63;80.08;100237.75;5134462;27;20381;-59
2022/11/09 01:13:22;;;;;;;9.45;2.78;;;;;;;13.70;79.74;100229.81;5136470;27;20404;-59
2022/11/09 01:15:52;;;;;;;9.52;2.92;;;;;;;13.73;79.61;100246.25;5135964;27;20043;-59
2022/11/09 01:18:20;;;;;;;9.93;3.10;;;;;;;13.69;79.75;100245.00;5136404;27;20449;-59
2022/11/09 01:20:48;;;;;;;8.00;2.75;;;;;;;13.65;79.55;100246.38;5136304;27;20039;-59
2022/11/09 01:23:17;;;;;;;10.40;3.10;;;;;;;13.66;79.20;100237.38;5136393;27;20090;-59
2022/11/09 01:25:44;;;;;;;9.95;3.25;;;;;;;13.67;78.91;100259.53;5136850;27;20130;-59
2022/11/09 01:28:11;;;;;;;9.80;3.20;;;;;;;13.70;78.91;100259.97;5136267;27;20092;-59
2022/11/09 01:30:41;;;;;;;9.50;3.20;;;;;;;13.69;79.27;100262.84;5136617;27;20043;-59
2022/11/09 01:33:11;;;;;;;10.70;3.17;;;;;;;13.77;78.71;100260.03;5118191;27;20046;-60
2022/11/09 01:35:39;;;;;;;9.75;3.10;;;;;;;13.70;78.84;100253.81;5136481;27;20053;-60
2022/11/09 01:38:07;;;;;;;11.43;3.20;;;;;;;13.69;79.14;100254.84;5136491;27;20096;-60
2022/11/09 01:40:36;;;;;;;12.30;3.22;;;;;;;13.73;78.77;100262.25;5098420;27;20043;-60
2022/11/09 01:43:13;;;;;;;11.07;3.28;;;;;;;13.66;79.21;100261.38;5136370;27;20066;-60
2022/11/09 01:45:40;;;;;;;8.93;3.35;;;;;;;13.67;78.93;100267.53;5117320;27;20047;-60
2022/11/09 01:48:15;;;;;;;12.35;3.75;;;;;;;13.65;78.99;100262.38;5136053;27;20488;-60
2022/11/09 01:50:47;;;;;;;11.55;3.67;;;;;;;13.62;78.96;100254.75;5135873;27;20043;-60
2022/11/09 01:53:20;;;;;;;12.23;3.42;;;;;;;13.65;78.95;100266.88;5136433;27;20404;-60
2022/11/09 01:55:52;;;;;;;11.45;2.92;;;;;;;13.56;78.55;100260.81;5136009;27;20055;-60
2022/11/09 01:58:25;;;;;;;9.80;3.28;;;;;;;13.63;78.31;100261.75;5135887;27;20043;-60
2022/11/09 02:00:55;;;;;;;11.00;3.42;;;;;;;13.69;77.89;100258.31;5135857;27;20050;-60
2022/11/09 02:03:29;;;;;;;13.63;3.53;;;;;;;13.66;77.48;100263.19;5135948;27;20125;-60
2022/11/09 02:06:02;;;;;;;8.77;2.55;;;;;;;13.62;77.89;100254.75;5134852;27;20045;-60
2022/11/09 02:08:29;;;;;;;;;;;;;;;13.59;78.20;100257.78;5136417;27;20043;-60
2022/11/09 02:11:08;;;;;;;8.25;2.17;;;;;;;13.52;77.64;100241.72;5135838;27;20318;-59
2022/11/09 02:13:38;;;;;;;11.25;2.33;;;;;;;13.58;78.12;100240.16;5135479;27;20516;-60
2022/11/09 02:16:09;;;;;;;11.07;2.30;;;;;;;13.55;78.20;100244.00;5135625;27;20043;-60
2022/11/09 02:18:42;;;;;;;10.05;2.42;;;;;;;13.47;78.39;100240.63;5135313;27;20438;-60
2022/11/09 02:21:08;;;;;;;10.75;3.47;;;;;;;13.48;78.51;100244.91;5117883;27;20424;-60
2022/11/09 02:23:35;;;;;;;11.63;2.92;;;;;;;13.56;78.22;100260.81;5135490;27;20046;-60
2022/11/09 02:26:08;;;;;;;12.98;3.47;;;;;;;13.62;77.92;100252.06;5135580;27;20131;-60
2022/11/09 02:28:38;;;;;;;14.95;3.38;;;;;;;13.61;78.00;100258.44;5134552;27;20074;-60
2022/11/09 02:31:09;;;;;;;10.65;3.13;;;;;;;13.57;77.85;100259.78;5135000;27;20122;-60
2022/11/09 02:33:55;;;;;;;10.55;3.00;;;;;;;13.54;78.53;100255.69;5135192;27;20043;-60
2022/11/09 02:36:22;;;;;;;13.70;3.15;;;;;;;13.59;77.73;100260.47;5134730;27;20061;-60
2022/11/09 02:38:53;;;;;;;8.88;2.90;;;;;;;13.61;77.44;100261.09;5117118;27;20400;-60
2022/11/09 02:41:21;;;;;;;9.10;2.80;;;;;;;13.52;78.39;100257.69;5096229;27;20039;-59
2022/11/09 02:43:51;;;;;;;10.38;2.80;;;;;;;13.56;77.68;100258.97;5135268;27;20134;-61
2022/11/09 02:46:24;;;;;;;13.63;3.03;;;;;;;13.54;77.48;100254.84;5134530;27;20043;-61
2022/11/09 02:48:51;;;;;;;10.15;3.05;;;;;;;13.58;77.51;100256.94;5135069;27;20056;-61
2022/11/09 02:51:19;;;;;;;9.82;2.50;;;;;;;13.62;76.89;100254.75;5134837;27;20050;-61
2022/11/09 02:53:46;;;;;;;9.10;2.33;;;;;;;13.59;77.11;100249.81;5134988;27;20039;-61
2022/11/09 02:56:13;;;;;;;14.40;2.78;;;;;;;13.52;77.55;100260.38;5134876;27;20114;-61
2022/11/09 02:58:40;;;;;;;9.77;2.40;;;;;;;13.59;77.50;100255.94;5134233;27;20042;-61
2022/11/09 03:01:06;;;;;;;9.48;2.70;;;;;;;13.54;77.04;100268.19;5134719;27;20039;-61
2022/11/09 03:03:35;;;;;;;14.57;2.70;;;;;;;13.57;77.52;100257.97;5134591;27;20122;-61
2022/11/09 03:06:02;;;;;;;11.10;2.80;;;;;;;13.62;77.65;100262.72;5134222;27;20047;-61
2022/11/09 03:08:29;;;;;;;15.00;2.90;;;;;;;13.63;77.44;100267.88;5134728;27;20039;-61
2022/11/09 03:10:58;;;;;;;12.13;3.20;;;;;;;13.66;77.05;100266.72;5132396;27;20058;-61
2022/11/09 03:13:25;;;;;;;19.50;3.50;;;;;;;13.65;77.63;100258.91;5134373;27;20092;-61
2022/11/09 03:15:53;;;;;;;12.80;3.47;;;;;;;13.58;77.69;100253.47;5134260;27;20068;-61
2022/11/09 03:18:19;;;;;;;12.52;3.70;;;;;;;13.57;78.15;100259.78;5134445;27;20035;-61
2022/11/09 03:20:46;;;;;;;12.25;3.45;;;;;;;13.61;77.68;100266.44;5134597;27;20516;-61
2022/11/09 03:23:15;;;;;;;12.43;3.20;;;;;;;13.63;77.12;100262.56;5134229;27;20050;-60
2022/11/09 03:25:42;;;;;;;16.90;3.60;;;;;;;13.63;77.27;100267.88;5116177;27;20039;-60
2022/11/09 03:28:09;;;;;;;12.10;3.50;;;;;;;13.69;77.40;100268.16;5133992;27;20046;-60
2022/11/09 03:30:38;;;;;;;14.73;3.15;;;;;;;13.63;77.49;100262.56;5134109;27;20103;-61
2022/11/09 03:33:08;;;;;;;14.75;3.60;;;;;;;13.67;77.47;100257.69;5130166;27;20104;-60
2022/11/09 03:35:36;;;;;;;12.48;3.13;;;;;;;13.69;77.00;100262.84;5130058;27;20047;-61
2022/11/09 03:38:03;;;;;;;11.30;2.75;;;;;;;13.67;77.09;100262.19;5130840;27;20119;-60
2022/11/09 03:40:31;;;;;;;12.63;2.78;;;;;;;13.61;77.19;100267.25;5093457;27;20511;-61
2022/11/09 03:42:58;;;;;;;15.73;3.03;;;;;;;13.65;76.97;100272.22;5130747;27;20107;-60
2022/11/09 03:45:26;;;;;;;12.40;2.92;;;;;;;13.66;77.07;100277.38;5132103;28;20134;-61
2022/11/09 03:47:58;;;;;;;15.77;3.03;;;;;;;13.69;77.05;100273.50;5133132;28;20106;-61
2022/11/09 03:50:29;;;;;;;14.13;2.85;;;;;;;13.70;76.65;100283.13;5132744;28;20035;-60
2022/11/09 03:52:57;;;;;;;14.38;2.70;;;;;;;13.67;77.11;100289.66;5132955;28;20058;-61
2022/11/09 03:55:24;;;;;;;15.02;2.60;;;;;;;13.72;76.45;100281.94;5133610;28;20047;-60
2022/11/09 03:57:51;;;;;;;14.25;2.80;;;;;;;13.67;77.33;100289.66;5134072;28;20046;-60
2022/11/09 04:00:20;;;;;;;11.90;2.80;;;;;;;13.70;77.20;100288.44;5132459;28;20043;-60
2022/11/09 04:02:48;;;;;;;14.55;3.28;;;;;;;13.71;77.29;100287.47;5115571;28;20442;-60
2022/11/09 04:05:15;;;;;;;14.00;2.80;;;;;;;13.68;76.87;100293.16;5133420;28;20057;-60
2022/11/09 04:07:47;;;;;;;10.95;2.80;;;;;;;13.70;77.38;100294.63;5133801;28;20044;-60
2022/11/09 04:10:14;;;;;;;14.43;3.25;;;;;;;13.70;76.81;100294.63;5133948;28;20122;-61
2022/11/09 04:12:41;;;;;;;13.32;2.95;;;;;;;13.77;76.33;100294.69;5133512;28;20039;-61
2022/11/09 04:15:08;;;;;;;9.05;2.53;;;;;;;13.75;76.52;100299.41;5115809;28;20050;-61
2022/11/09 04:17:35;;;;;;;9.23;2.70;;;;;;;13.72;76.39;100291.78;5133564;28;20062;-61
2022/11/09 04:20:03;;;;;;;14.38;2.80;;;;;;;13.75;76.50;100304.72;5134109;28;20497;-61
2022/11/09 04:22:29;;;;;;;12.85;2.58;;;;;;;13.76;76.79;100293.06;5133778;28;20084;-61
2022/11/09 04:24:56;;;;;;;11.02;2.35;;;;;;;13.82;76.15;100293.16;5133717;28;20055;-61
2022/11/09 04:27:22;;;;;;;9.00;2.28;;;;;;;13.77;76.55;100295.53;5133613;28;20043;-61
2022/11/09 04:29:49;;;;;;;8.15;2.00;;;;;;;13.80;76.48;100297.81;5133495;28;20043;-61
2022/11/09 04:32:16;;;;;;;7.22;1.95;;;;;;;13.73;76.55;100306.75;5133584;28;20051;-61
2022/11/09 04:34:43;;;;;;;16.75;2.90;;;;;;;13.74;77.15;100297.75;5133632;28;20058;-61
2022/11/09 04:37:09;;;;;;;10.52;2.60;;;;;;;13.61;76.96;100301.91;5133448;28;20442;-61
2022/11/09 04:39:36;;;;;;;8.70;2.30;;;;;;;13.65;77.02;100299.69;5095208;28;20047;-59
2022/11/09 04:42:03;;;;;;;13.18;2.65;;;;;;;13.66;77.39;100306.69;5115381;28;20051;-61
2022/11/09 04:44:30;;;;;;;14.38;3.17;;;;;;;13.71;76.41;100322.09;5133253;28;20071;-61
2022/11/09 04:46:56;;;;;;;9.93;2.50;;;;;;;13.63;77.00;100318.53;5133539;28;20092;-60
2022/11/09 04:49:23;;;;;;;17.30;4.03;;;;;;;13.63;78.03;100325.69;5133624;28;20358;-60
2022/11/09 04:51:50;;;;;;;16.55;2.70;;;;;;;13.60;78.37;100321.53;5115617;27;20123;-60
2022/11/09 04:54:17;;;;;;;11.27;2.17;;;;;;;13.55;78.26;100318.63;5124267;27;20070;-60
2022/11/09 04:56:43;;;;;;;13.38;2.63;;;;;;;13.58;79.03;100323.56;5137221;27;20051;-60
2022/11/09 04:59:10;;;;;;;14.90;2.28;;;;;;;13.50;79.56;100321.00;5118961;27;20092;-60
2022/11/09 05:01:37;;;;;;;10.65;2.47;;;;;;;13.42;80.04;100326.41;5137236;27;20039;-60
2022/11/09 05:04:03;;;;;;;16.13;2.63;;;;;;;13.41;81.24;100333.59;5136678;27;20046;-60
2022/11/09 05:06:31;;;;;;;18.00;2.60;;;;;;;13.41;80.46;100327.44;5136421;27;20046;-60
2022/11/09 05:09:00;;;;;;;17.00;2.95;;;;;;;13.34;80.46;100332.66;5136781;27;20043;-59
2022/11/09 05:11:27;;;;;;;12.93;2.30;;;;;;;13.48;79.69;100333.69;5134498;27;20035;-60
2022/11/09 05:13:54;;;;;;;10.90;2.55;;;;;;;13.42;80.50;100331.75;5136558;27;20096;-59
2022/11/09 05:16:22;;;;;;;14.75;2.50;;;;;;;13.36;80.54;100329.81;5135635;27;20043;-60
2022/11/09 05:18:49;;;;;;;11.10;2.40;;;;;;;13.32;80.47;100332.03;5136495;27;20047;-59
2022/11/09 05:21:16;;;;;;;13.05;2.78;;;;;;;13.33;81.19;100333.66;5136153;27;20047;-60
2022/11/09 05:23:59;;;;;;;18.00;3.13;;;;;;;13.37;80.88;100334.97;5118380;27;20043;-59
2022/11/09 05:26:29;;;;;;;10.15;2.42;;;;;;;13.41;80.45;100333.59;5135861;27;20187;-59
2022/11/09 05:28:58;;;;;;;16.88;3.10;;;;;;;13.39;80.49;100329.47;5136681;27;20047;-60
2022/11/09 05:31:25;;;;;;;18.15;2.95;;;;;;;13.41;79.94;100330.94;5136297;27;20054;-59
2022/11/09 05:33:53;;;;;;;10.68;2.28;;;;;;;13.40;79.73;100328.44;5118229;27;20516;-59
2022/11/09 05:36:21;;;;;;;12.35;2.53;;;;;;;13.50;79.02;100328.16;5118317;27;20050;-59
2022/11/09 05:38:48;;;;;;;15.52;2.53;;;;;;;13.48;78.98;100328.38;5136411;27;20046;-60
2022/11/09 05:41:15;;;;;;;11.98;2.70;;;;;;;13.44;79.19;100327.91;5097903;27;20054;-60
2022/11/09 05:43:43;;;;;;;15.15;2.83;;;;;;;13.44;79.96;100327.06;5136080;27;20047;-59
2022/11/09 05:46:12;;;;;;;13.52;2.70;;;;;;;13.46;79.26;100325.03;5135501;27;20047;-59
2022/11/09 05:48:39;;;;;;;16.35;2.80;;;;;;;13.41;79.60;100324.78;5135474;27;20092;-59
2022/11/09 05:51:08;;;;;;;11.70;2.75;;;;;;;13.44;79.60;100313.72;5135968;27;20092;-60
2022/11/09 05:53:36;;;;;;;13.52;2.38;;;;;;;13.38;79.24;100311.81;5136404;27;20051;-60
2022/11/09 05:56:09;;;;;;;14.50;3.05;;;;;;;13.42;79.78;100303.28;5135778;27;20069;-60
2022/11/09 05:58:37;;;;;;;;;;;;;;;13.47;80.29;100308.06;5136397;27;20067;-60
2022/11/09 06:01:05;;;;;;;11.95;2.83;;;;;;;13.50;79.24;100306.84;5135584;27;19983;-60
2022/11/09 06:03:32;;;;;;;14.30;2.40;;;;;;;13.47;79.19;100310.72;5135664;27;20096;-60
2022/11/09 06:06:02;;;;;;;11.50;2.70;;;;;;;13.58;78.35;100317.44;5134788;27;20039;-60
2022/11/09 06:08:32;;;;;;;13.02;2.72;;;;;;;13.46;79.55;100313.56;5135928;27;20142;-60
2022/11/09 06:11:01;;;;;;;12.93;2.60;;;;;;;13.48;80.14;100316.88;5135604;27;20100;-59
2022/11/09 06:13:28;;;;;;;13.52;2.90;;;;;;;13.47;78.84;100320.56;5135403;27;20039;-59
2022/11/09 06:15:57;;;;;;;11.20;2.45;;;;;;;13.36;79.49;100312.00;5135513;27;20047;-59
2022/11/09 06:18:24;;;;;;;16.65;2.30;;;;;;;13.46;78.74;100319.72;5135594;27;20043;-59
2022/11/09 06:20:53;;;;;;;11.45;2.10;;;;;;;13.40;77.70;100318.59;5100679;27;20068;-59
2022/11/09 06:23:28;;;;;;;14.52;2.20;;;;;;;13.29;78.52;100308.38;5135270;27;20122;-59
2022/11/09 06:26:06;;;;;;;12.65;1.98;;;;;;;13.30;78.23;100320.69;5135671;27;20047;-59
2022/11/09 06:28:33;;;;;;;13.93;2.03;;;;;;;13.22;79.00;100320.75;5134945;27;20091;-59
2022/11/09 06:31:01;;;;;;;9.93;2.00;;;;;;;13.13;79.18;100320.00;5135264;27;20480;-61
2022/11/09 06:33:30;;;;;;;11.98;2.00;;;;;;;13.16;79.96;100318.84;5134808;27;20127;-59
2022/11/09 06:35:57;;;;;;;13.52;2.20;;;;;;;13.10;80.94;100328.38;5134513;27;20399;-59
2022/11/09 06:38:25;;;;;;;12.23;2.25;;;;;;;13.24;80.52;100342.72;5135241;27;20122;-60
2022/11/09 06:40:54;;;;;;;10.30;2.10;;;;;;;13.12;80.91;100345.00;5096528;27;20131;-60
2022/11/09 06:43:21;;;;;;;10.20;2.05;;;;;;;13.15;81.22;100343.78;5135050;27;20047;-60
2022/11/09 06:45:49;;;;;;;11.55;2.40;;;;;;;13.13;80.92;100349.28;5133722;27;20082;-60
2022/11/09 06:48:16;;;;;;;9.40;2.42;;;;;;;13.13;81.39;100351.97;5134268;27;20408;-60
2022/11/09 06:50:43;;;;;;;9.70;2.20;;;;;;;13.19;81.27;100350.44;5134419;27;20047;-60
2022/11/09 06:53:12;;;;;;;10.82;2.10;;;;;;;13.18;81.45;100354.91;5134257;27;20050;-60
2022/11/09 06:55:40;;;;;;;8.65;2.10;;;;;;;13.15;81.41;100349.97;5134521;27;20047;-60
2022/11/09 06:58:14;;;;;;;11.50;2.53;;;;;;;13.16;81.86;100362.25;5134115;27;20035;-60
2022/11/09 07:00:42;;;;;;;12.73;2.28;;;;;;;13.17;80.62;100357.75;5134220;27;20055;-60
2022/11/09 07:03:14;;;;;;;9.50;2.20;;;;;;;13.14;80.62;100366.94;5134248;27;20536;-60
2022/11/09 07:05:42;;;;;;;10.48;2.20;;;;;;;13.07;80.63;100372.16;5115397;27;20091;-60
2022/11/09 07:08:09;;;;;;;8.70;2.30;;;;;;;13.14;79.50;100374.94;5131063;27;20126;-60
2022/11/09 07:10:36;;;;;;;10.80;2.22;;;;;;;13.17;80.40;100376.41;5133648;27;20047;-60
2022/11/09 07:13:03;;;;;;;8.25;1.90;;;;;;;13.21;79.24;100385.72;5130483;27;20039;-60
2022/11/09 07:15:30;;;;;;;12.30;2.30;;;;;;;13.22;79.44;100384.69;5115631;27;20438;-60
2022/11/09 07:17:58;;;;;;;8.32;2.30;;;;;;;13.12;80.40;100382.28;5133470;27;20039;-60
2022/11/09 07:20:26;;;;;;;7.80;2.10;;;;;;;13.07;80.60;100377.47;5115971;27;20051;-60
2022/11/09 07:22:53;;;;;;;12.60;2.22;;;;;;;13.00;80.26;100386.38;5115249;27;20036;-60
2022/11/09 07:25:20;;;;;;;10.10;2.13;;;;;;;12.94;81.09;100389.75;5113760;28;20473;-60
2022/11/09 07:27:47;;;;;;;10.30;2.25;;;;;;;12.91;81.28;100390.09;5113591;28;20496;-61
2022/11/09 07:30:14;;;;;;;13.57;2.55;;;;;;;12.88;81.92;100401.94;5113832;28;20039;-61
2022/11/09 07:32:41;;;;;;;9.20;2.13;;;;;;;12.81;81.80;100399.16;5113434;28;20058;-61
2022/11/09 07:35:29;;;;;;;9.25;2.72;;;;;;;12.73;81.95;100396.53;5098699;28;20495;-61
2022/11/09 07:38:00;;;;;;;11.13;2.40;;;;;;;12.77;82.25;100397.84;5113184;28;20039;-61
2022/11/09 07:40:27;;;;;;;9.80;2.03;;;;;;;12.93;81.63;100398.72;5075596;28;20049;-61
2022/11/09 07:42:58;;;;;;;7.43;2.25;;;;;;;12.84;81.86;100397.97;5122345;27;20346;-61
2022/11/09 07:45:25;;;;;;;12.82;3.03;;;;;;;12.94;81.67;100393.25;5132127;27;20126;-60
2022/11/09 07:47:56;;;;;;;9.68;2.63;;;;;;;12.97;81.75;100400.88;5128686;27;20044;-60
2022/11/09 07:50:24;;;;;;;9.50;2.75;;;;;;;12.97;81.80;100392.03;5092586;27;20043;-60
2022/11/09 07:52:51;;;;;;;10.02;2.30;;;;;;;12.95;81.85;100405.56;5123612;28;20043;-60
2022/11/09 07:55:18;;;;;;;9.75;2.53;;;;;;;13.00;81.35;100405.81;5125228;28;20055;-59
2022/11/09 07:57:46;;;;;;;11.82;3.00;;;;;;;13.16;80.91;100404.06;5130571;28;20457;-60
2022/11/09 08:00:13;;;;;;;13.55;3.50;;;;;;;13.13;80.89;100402.56;5132466;28;20046;-60
2022/11/09 08:02:40;;;;;;;13.38;3.13;;;;;;;13.31;80.34;100412.94;5112358;28;20040;-60
2022/11/09 08:05:07;;;;;;;9.98;3.42;;;;;;;13.38;80.21;100416.53;5109133;28;20129;-60
2022/11/09 08:07:33;;;;;;;11.60;2.50;;;;;;;13.27;81.07;100416.13;5097759;28;20040;-60
2022/11/09 08:10:00;;;;;;;9.45;2.53;;;;;;;13.24;81.59;100412.81;5108918;27;23180;-61
2022/11/09 08:12:27;;;;;;;11.00;2.60;;;;;;;13.26;81.88;100417.94;5127585;28;20070;-61
2022/11/09 08:14:55;;;;;;;9.88;2.05;;;;;;;13.09;82.70;100419.91;5108538;28;20048;-61
2022/11/09 08:17:21;;;;;;;9.93;2.33;;;;;;;13.14;83.27;100424.72;5119517;28;20042;-61
2022/11/09 08:19:48;;;;;;;10.35;2.38;;;;;;;13.04;84.07;100424.94;5104522;27;20039;-60
2022/11/09 08:22:15;;;;;;;9.80;2.05;;;;;;;12.91;84.37;100430.03;5115174;28;20450;-61
2022/11/09 08:24:42;;;;;;;16.00;2.40;;;;;;;12.95;84.90;100426.00;5118869;28;20051;-60
2022/11/09 08:27:08;;;;;;;11.48;2.25;;;;;;;12.97;84.88;100429.31;5121884;27;20048;-61
2022/11/09 08:29:35;;;;;;;8.57;2.25;;;;;;;13.07;84.25;100425.41;5127222;27;20431;-60
2022/11/09 08:32:02;;;;;;;15.05;2.65;;;;;;;13.08;84.07;100434.25;5123143;27;20450;-60
2022/11/09 08:34:28;;;;;;;15.68;2.40;;;;;;;13.09;84.70;100435.88;5109652;27;21691;-61
2022/11/09 08:36:58;;;;;;;10.45;2.03;;;;;;;13.13;84.34;100437.19;5121457;27;20386;-61
2022/11/09 08:39:25;;;;;;;9.32;2.40;;;;;;;13.26;82.65;100436.56;5125271;27;20058;-60
2022/11/09 08:41:52;;;;;;;11.45;2.42;;;;;;;13.23;82.97;100434.28;5114226;27;20039;-61
2022/11/09 08:44:19;;;;;;;8.70;2.28;;;;;;;13.31;82.68;100434.25;5114559;27;20137;-61
2022/11/09 08:46:46;;;;;;;8.85;2.13;;;;;;;13.47;81.51;100430.63;5111739;27;20461;-61
2022/11/09 08:49:13;;;;;;;9.02;2.35;;;;;;;13.52;80.51;100432.75;5114953;27;20429;-61
2022/11/09 08:51:39;;;;;;;12.88;2.55;;;;;;;13.62;80.32;100441.31;5082366;27;20515;-60
2022/11/09 08:54:06;;;;;;;15.38;2.47;;;;;;;13.69;79.40;100438.75;5110493;27;20077;-59
2022/11/09 08:56:33;;;;;;;15.82;2.97;;;;;;;13.80;78.29;100446.28;5112502;27;20043;-59
2022/11/09 08:59:00;;;;;;;9.75;2.45;;;;;;;13.84;77.70;100442.25;5131904;27;20031;-59
2022/11/09 09:01:26;;;;;;;12.30;2.60;;;;;;;13.95;77.49;100446.31;5117868;27;20115;-61
2022/11/09 09:03:53;;;;;;;9.93;2.60;;;;;;;13.97;76.57;100436.28;5128513;27;20051;-61
2022/11/09 09:06:20;;;;;;;11.48;2.25;;;;;;;13.92;76.10;100444.84;5113058;27;20036;-58
2022/11/09 09:08:46;;;;;;;10.80;2.55;;;;;;;13.95;75.42;100444.47;5107719;27;20039;-61
2022/11/09 09:11:14;;;;;;;10.88;2.13;;;;;;;14.08;73.73;100448.31;5131587;27;20043;-61
2022/11/09 09:13:40;;;;;;;15.13;2.70;;;;;;;13.97;74.50;100439.78;5105198;27;20047;-60
2022/11/09 09:16:11;;;;;;;9.43;2.50;;;;;;;14.03;73.91;100440.88;5133004;27;20039;-60
2022/11/09 09:18:38;;;;;;;10.82;2.58;;;;;;;14.06;73.34;100434.34;5113621;27;20050;-59
2022/11/09 09:21:06;;;;;;;14.93;2.65;;;;;;;13.99;71.61;100442.28;5134240;27;20040;-59
2022/11/09 09:23:33;;;;;;;9.50;2.17;;;;;;;14.08;72.17;100441.16;5103032;27;20046;-59
2022/11/09 09:26:00;;;;;;;15.45;2.58;;;;;;;14.17;71.34;100449.88;5133764;27;20229;-59
2022/11/09 09:28:27;;;;;;;12.90;2.30;;;;;;;14.13;70.93;100441.41;5110945;27;20054;-59
2022/11/09 09:30:56;;;;;;;11.40;2.75;;;;;;;14.16;71.18;100449.06;5128659;27;20140;-59
2022/11/09 09:33:23;;;;;;;9.57;2.28;;;;;;;14.21;69.65;100449.34;5114597;27;20120;-59
2022/11/09 09:35:50;;;;;;;18.00;2.55;;;;;;;14.20;69.66;100447.69;5126158;27;20084;-59
2022/11/09 09:38:18;;;;;;;14.48;2.13;;;;;;;14.29;69.35;100450.25;5102583;27;20065;-59
2022/11/09 09:41:11;;;;;;;10.30;2.03;;;;;;;14.36;69.67;100456.50;5015205;27;20504;-62
2022/11/09 09:43:42;;;;;;;8.27;2.00;;;;;;;14.31;69.48;100457.06;5115530;27;20050;-59
2022/11/09 09:46:21;;;;;;;11.38;2.03;;;;;;;14.38;68.95;100460.63;5128681;27;20477;-61
2022/11/09 09:48:57;;;;;;;12.07;2.10;;;;;;;14.44;67.78;100480.41;5097554;27;20054;-63
2022/11/09 09:51:45;;;;;;;7.53;2.08;;;;;;;14.39;66.97;100474.81;5120793;27;20528;-62
2022/11/09 09:54:33;;;;;;;12.75;2.20;;;;;;;14.21;67.23;100484.03;5129105;27;20080;-62
2022/11/09 09:57:00;;;;;;;10.57;2.30;;;;;;;14.19;67.09;100477.22;5127487;27;20114;-61
2022/11/09 09:59:48;;;;;;;7.97;1.90;;;;;;;14.18;66.77;100481.72;5132935;27;20074;-61
2022/11/09 10:05:00;;;;;;;10.35;1.80;;;;;;;14.19;66.52;100486.06;5065718;28;20399;-59
2022/11/09 10:07:38;;;;;;;11.63;2.10;;;;;;;14.18;66.35;100508.38;5067679;28;20094;-59
2022/11/09 10:10:29;;;;;;;14.27;2.40;;;;;;;14.20;66.21;100489.53;5055022;28;20045;-59
2022/11/09 10:13:24;;;;;;;10.80;2.03;;;;;;;14.27;65.72;100494.97;5048064;28;20116;-59
2022/11/09 10:16:05;;;;;;;12.35;2.30;;;;;;;14.20;65.75;100505.53;5061776;28;20038;-60
2022/11/09 10:19:12;;;;;;;8.47;1.80;;;;;;;14.20;65.02;100511.69;5040470;28;20124;-59
2022/11/09 10:22:18;;;;;;;13.05;2.10;;;;;;;14.20;65.94;100513.53;5038629;28;20052;-59
2022/11/09 10:25:13;;;;;;;13.93;2.88;;;;;;;14.20;65.94;100511.69;5060989;28;20040;-59
2022/11/09 10:27:52;;;;;;;11.43;2.00;;;;;;;14.18;66.38;100511.06;5052779;28;20052;-60
2022/11/09 10:30:21;;;;;;;13.13;2.33;;;;;;;14.19;65.75;100514.56;5046928;28;20434;-59
2022/11/09 10:32:51;;;;;;;9.15;2.03;;;;;;;14.24;66.11;100514.81;5055534;28;20056;-59
2022/11/09 10:35:21;;;;;;;10.68;2.05;;;;;;;14.17;66.19;100505.91;5058790;28;20033;-60
2022/11/09 10:37:51;;;;;;;9.70;2.10;;;;;;;14.14;65.98;100516.97;5051959;28;20045;-60
2022/11/09 10:40:44;;;;;;;11.32;2.40;;;;;;;14.12;65.97;100514.47;5020718;28;20041;-59
2022/11/09 10:43:31;;;;;;;13.95;3.15;;;;;;;14.43;65.50;100516.13;5067708;28;20459;-59
2022/11/09 10:46:20;;;;;;;11.40;2.25;;;;;;;15.51;61.35;100519.81;5064358;28;20041;-60
2022/11/09 10:49:18;;;;;;;10.15;2.15;;;;;;;15.75;60.01;100525.81;5058547;28;20049;-60
2022/11/09 10:52:38;;;;;;;14.02;2.40;;;;;;;16.84;56.69;100527.94;5023171;28;20103;-60
2022/11/09 10:55:27;;;;;;;12.68;2.20;;;;;;;18.15;52.48;100532.03;5048794;28;20036;-61
2022/11/09 10:58:25;;;;;;;9.88;2.05;;;;;;;18.55;50.04;100525.75;5041327;28;20072;-60
2022/11/09 11:01:22;;;;;;;13.65;2.60;;;;;;;18.49;49.18;100540.03;5039910;28;20041;-61
2022/11/09 11:04:19;;;;;;;15.73;2.38;;;;;;;17.64;51.98;100525.44;5053957;28;20045;-60
2022/11/09 11:07:13;;;;;;;8.40;1.77;;;;;;;18.03;50.78;100526.50;5038831;28;20036;-60
2022/11/09 11:15:39;;;;;;;13.57;1.95;;;;;;;19.30;47.21;100539.50;5105459;27;20356;-59
2022/11/09 11:18:26;;;;;;;12.25;2.10;;;;;;;19.11;47.23;100524.28;5068612;28;20058;-61
2022/11/09 11:21:17;;;;;;;7.93;1.90;;;;;;;18.70;47.35;100529.00;5089255;28;20040;-60
2022/11/09 11:24:18;;;;;;;11.13;2.17;;;;;;;19.03;46.77;100528.06;5063752;28;20040;-60
2022/11/09 11:27:12;;;;;;;14.27;2.05;;;;;;;19.62;45.69;100539.47;5090879;28;20129;-60
2022/11/09 11:30:09;;;;;;;9.82;2.20;;;;;;;18.68;47.49;100525.72;5079984;28;20646;-60
2022/11/09 11:32:57;;;;;;;8.63;1.75;;;;;;;19.03;46.22;100541.50;5065606;28;20117;-60
2022/11/09 11:36:02;;;;;;;12.40;2.08;;;;;;;18.53;46.80;100536.69;5083116;28;20048;-60
2022/11/09 11:39:12;;;;;;;8.98;2.13;;;;;;;17.89;48.82;100540.13;5071491;27;20123;-60
2022/11/09 11:42:26;;;;;;;12.80;2.10;;;;;;;18.50;47.32;100528.25;5063413;28;20072;-60
2022/11/09 11:48:53;;;;;;;14.35;2.00;;;;;;;17.70;49.82;100528.31;5107330;27;20403;-62
2022/11/09 11:52:13;;;;;;;13.27;2.20;;;;;;;17.14;50.58;100535.69;5106379;28;20115;-59